Time;durP1;ratioP1;P1;durP2;ratioP2;P2;SDS_P1;SDS_P2;PMS_P1;PMS_P2;Temp;Humidity;BMP_temperature;BMP_pressure;BME280_temperature;BME280_humidity;BME280_pressure;Samples;Min_cycle;Max_cycle;Signal;HPM_P1;HPM_P2
2022/07/02 00:01:49;;;;;;;2.85;1.00;;;18.00;53.70;;;;;;4909837;29;20104;-49
2022/07/02 00:04:26;;;;;;;0.77;0.77;;;18.00;54.00;;;;;;4910056;29;20041;-51
2022/07/02 00:06:53;;;;;;;1.20;0.85;;;18.00;54.00;;;;;;4907377;29;20091;-51
2022/07/02 00:09:28;;;;;;;1.08;1.02;;;17.90;54.00;;;;;;4900167;29;20119;-51
2022/07/02 00:11:59;;;;;;;2.55;1.10;;;17.90;54.50;;;;;;4910848;29;20044;-53
2022/07/02 00:14:26;;;;;;;2.00;1.10;;;17.90;54.40;;;;;;4890836;29;20052;-51
2022/07/02 00:16:54;;;;;;;2.85;1.55;;;17.90;54.30;;;;;;4899646;29;20049;-50
2022/07/02 00:19:22;;;;;;;1.65;1.15;;;17.80;54.60;;;;;;4907257;29;20047;-53
2022/07/02 00:21:49;;;;;;;1.10;1.10;;;17.80;54.70;;;;;;4914128;29;20407;-51
2022/07/02 00:24:15;;;;;;;2.30;1.33;;;17.70;54.70;;;;;;4894194;29;20096;-49
2022/07/02 00:26:57;;;;;;;1.23;1.00;;;17.70;54.70;;;;;;4898064;29;20088;-50
2022/07/02 00:29:34;;;;;;;1.73;0.95;;;17.70;55.30;;;;;;4906739;29;20044;-47
2022/07/02 00:32:03;;;;;;;1.20;1.10;;;17.70;55.40;;;;;;4897150;29;20052;-51
2022/07/02 00:34:38;;;;;;;1.33;1.10;;;17.70;55.00;;;;;;4897408;29;20115;-53
2022/07/02 00:37:12;;;;;;;1.50;1.20;;;17.70;54.80;;;;;;4904100;29;20067;-51
2022/07/02 00:39:40;;;;;;;2.30;1.17;;;17.60;55.40;;;;;;4909609;29;20457;-48
2022/07/02 00:42:09;;;;;;;0.93;0.93;;;17.60;54.60;;;;;;4913859;29;20056;-53
2022/07/02 00:44:37;;;;;;;1.55;1.02;;;17.60;54.70;;;;;;4898722;29;20400;-52
2022/07/02 00:47:09;;;;;;;1.30;1.20;;;17.50;54.60;;;;;;4903323;29;20461;-51
2022/07/02 00:49:38;;;;;;;1.00;1.00;;;17.50;54.90;;;;;;4914294;29;20048;-48
2022/07/02 00:52:08;;;;;;;1.13;1.00;;;17.50;54.70;;;;;;4888323;29;20100;-48
2022/07/02 00:54:35;;;;;;;1.10;1.00;;;17.40;54.60;;;;;;4899053;29;20116;-50
2022/07/02 00:57:07;;;;;;;1.02;0.98;;;17.50;54.70;;;;;;4903108;29;20051;-50
2022/07/02 00:59:37;;;;;;;;;;;17.30;54.60;;;;;;4912984;29;20043;-50
2022/07/02 01:02:07;;;;;;;2.08;1.10;;;17.40;54.40;;;;;;4912351;29;19923;-52
2022/07/02 01:04:35;;;;;;;1.65;1.15;;;17.30;54.50;;;;;;4895926;29;20450;-51
2022/07/02 01:07:09;;;;;;;1.00;1.00;;;17.30;54.60;;;;;;4903118;29;20120;-49
2022/07/02 01:12:28;;;;;;;1.38;1.27;;;17.20;55.00;;;;;;4897007;29;20044;-51
2022/07/02 01:14:59;;;;;;;1.85;1.20;;;17.20;54.90;;;;;;4890950;29;20045;-52
2022/07/02 01:17:27;;;;;;;0.90;0.82;;;17.10;55.30;;;;;;4913228;29;20051;-53
2022/07/02 01:19:56;;;;;;;1.92;1.35;;;17.10;55.10;;;;;;4910965;29;20083;-48
2022/07/02 01:22:33;;;;;;;2.13;1.38;;;17.10;55.20;;;;;;4901112;29;20043;-52
2022/07/02 01:25:03;;;;;;;4.50;1.02;;;17.20;56.00;;;;;;4905888;29;20055;-49
2022/07/02 01:27:30;;;;;;;2.55;1.30;;;17.00;55.40;;;;;;4926960;23;20044;-48
2022/07/02 01:29:58;;;;;;;2.83;1.30;;;17.00;55.50;;;;;;4909677;29;20099;-48
2022/07/02 01:32:26;;;;;;;1.70;1.40;;;17.00;55.60;;;;;;4913342;29;20044;-52
2022/07/02 01:35:08;;;;;;;3.63;1.77;;;16.90;55.50;;;;;;4914553;29;20412;-51
2022/07/02 01:37:37;;;;;;;0.98;0.98;;;16.90;55.90;;;;;;4914028;29;20523;-50
2022/07/02 01:40:05;;;;;;;1.40;1.30;;;16.90;55.60;;;;;;4913574;29;20123;-49
2022/07/02 01:42:34;;;;;;;1.63;1.30;;;16.90;55.50;;;;;;4912627;29;20537;-45
2022/07/02 01:45:01;;;;;;;3.63;1.92;;;16.80;55.60;;;;;;4914372;29;20044;-47
2022/07/02 01:47:28;;;;;;;1.50;1.35;;;16.80;55.60;;;;;;4911072;29;20052;-46
2022/07/02 01:49:57;;;;;;;1.63;1.30;;;16.80;55.70;;;;;;4909069;29;20072;-51
2022/07/02 01:52:26;;;;;;;1.30;1.20;;;16.80;55.80;;;;;;4911566;29;20051;-52
2022/07/02 01:54:52;;;;;;;1.35;1.25;;;16.70;55.80;;;;;;4911193;29;20734;-47
2022/07/02 01:57:21;;;;;;;1.58;1.30;;;16.70;55.90;;;;;;4905865;29;20107;-48
2022/07/02 01:59:50;;;;;;;2.30;1.13;;;16.70;55.90;;;;;;4913334;29;20040;-49
2022/07/02 02:02:19;;;;;;;1.15;1.05;;;16.60;56.00;;;;;;4907213;29;20611;-47
2022/07/02 02:04:46;;;;;;;3.03;1.20;;;16.60;56.00;;;;;;4897257;29;20100;-46
2022/07/02 02:07:15;;;;;;;1.45;1.35;;;16.60;56.20;;;;;;4912018;29;20104;-47
2022/07/02 02:09:49;;;;;;;2.08;1.42;;;16.60;56.30;;;;;;4920894;29;20585;-46
2022/07/02 02:12:20;;;;;;;1.63;1.27;;;16.60;56.30;;;;;;4913500;29;20131;-48
2022/07/02 02:14:47;;;;;;;2.55;1.30;;;16.50;56.30;;;;;;4914060;29;20084;-49
2022/07/02 02:17:27;;;;;;;1.33;1.23;;;16.50;56.40;;;;;;4909898;29;20096;-47
2022/07/02 02:19:56;;;;;;;2.25;1.30;;;16.50;56.30;;;;;;4913466;29;20052;-48
2022/07/02 02:22:24;;;;;;;1.27;1.17;;;16.50;56.30;;;;;;4904505;29;20051;-49
2022/07/02 02:24:53;;;;;;;1.40;1.30;;;16.50;56.30;;;;;;4914206;29;20054;-49
2022/07/02 02:27:20;;;;;;;2.00;1.50;;;16.50;56.50;;;;;;4905733;29;20040;-46
2022/07/02 02:29:49;;;;;;;3.83;1.27;;;16.50;56.50;;;;;;4913693;29;20048;-49
2022/07/02 02:32:16;;;;;;;1.17;1.13;;;16.40;56.40;;;;;;4913183;29;20500;-47
2022/07/02 02:34:47;;;;;;;1.88;1.05;;;16.40;56.40;;;;;;4911987;29;20095;-48
2022/07/02 02:37:14;;;;;;;2.28;1.10;;;16.40;56.40;;;;;;4915415;29;20107;-47
2022/07/02 02:39:41;;;;;;;2.45;1.40;;;16.30;56.40;;;;;;4917085;29;20668;-47
2022/07/02 02:42:10;;;;;;;3.97;1.30;;;16.30;56.40;;;;;;4916390;29;20500;-51
2022/07/02 02:44:37;;;;;;;1.45;1.35;;;16.30;56.40;;;;;;4912475;29;20404;-48
2022/07/02 02:47:09;;;;;;;1.10;1.10;;;16.30;56.60;;;;;;4914814;29;20055;-47
2022/07/02 02:49:35;;;;;;;2.47;1.40;;;16.20;56.60;;;;;;4916871;29;20044;-50
2022/07/02 02:52:05;;;;;;;1.55;1.10;;;16.20;56.70;;;;;;4914885;29;20704;-47
2022/07/02 02:54:39;;;;;;;2.55;1.45;;;16.20;56.70;;;;;;4910262;29;20123;-51
2022/07/02 02:57:10;;;;;;;2.17;1.52;;;16.20;56.80;;;;;;4915851;29;20073;-49
2022/07/02 02:59:37;;;;;;;2.30;1.50;;;16.10;56.80;;;;;;4916619;29;20046;-48
2022/07/02 03:02:08;;;;;;;1.52;1.33;;;16.10;56.80;;;;;;4910341;29;20469;-48
2022/07/02 03:04:34;;;;;;;2.35;1.23;;;16.10;56.80;;;;;;4911778;29;20052;-47
2022/07/02 03:07:03;;;;;;;1.02;1.00;;;16.10;56.90;;;;;;4916218;29;20441;-46
2022/07/02 03:09:30;;;;;;;2.03;1.25;;;16.10;56.80;;;;;;4917340;29;20107;-50
2022/07/02 03:11:57;;;;;;;2.42;1.45;;;16.00;56.90;;;;;;4911400;29;20097;-46
2022/07/02 03:14:29;;;;;;;4.15;1.98;;;16.00;57.50;;;;;;4917525;29;20504;-49
2022/07/02 03:16:58;;;;;;;1.90;1.13;;;16.00;56.80;;;;;;4918972;29;20585;-47
2022/07/02 03:19:25;;;;;;;1.50;1.35;;;16.00;56.90;;;;;;4920931;29;20092;-49
2022/07/02 03:21:51;;;;;;;2.42;1.52;;;15.90;56.90;;;;;;4910779;29;20120;-47
2022/07/02 03:24:19;;;;;;;2.22;1.42;;;15.90;57.00;;;;;;4911201;29;20047;-45
2022/07/02 03:26:45;;;;;;;1.80;1.13;;;15.90;57.00;;;;;;4915302;29;20088;-48
2022/07/02 03:29:12;;;;;;;2.33;1.70;;;15.90;57.20;;;;;;4915462;29;20056;-46
2022/07/02 03:31:39;;;;;;;2.25;1.65;;;15.90;57.30;;;;;;4911775;29;20096;-46
2022/07/02 03:34:06;;;;;;;1.95;1.40;;;15.80;57.30;;;;;;4897041;29;20059;-51
2022/07/02 03:36:32;;;;;;;1.38;1.27;;;15.80;57.30;;;;;;4907885;29;20087;-48
2022/07/02 03:39:02;;;;;;;1.50;1.40;;;15.80;57.50;;;;;;4915320;29;20575;-47
2022/07/02 03:41:31;;;;;;;1.65;1.55;;;15.80;57.50;;;;;;4909053;29;20043;-45
2022/07/02 03:44:00;;;;;;;1.65;1.45;;;15.80;57.60;;;;;;4913581;29;20044;-49
2022/07/02 03:46:26;;;;;;;2.20;1.60;;;15.80;57.70;;;;;;4913634;29;20076;-48
2022/07/02 03:48:58;;;;;;;3.75;1.98;;;15.70;58.40;;;;;;4915195;29;20103;-46
2022/07/02 03:51:24;;;;;;;1.45;1.35;;;15.70;57.80;;;;;;4913025;29;20059;-45
2022/07/02 03:53:51;;;;;;;1.92;1.70;;;15.70;57.80;;;;;;4909403;29;20524;-49
2022/07/02 03:56:18;;;;;;;2.90;1.60;;;15.70;58.00;;;;;;4914810;29;20048;-49
2022/07/02 03:58:45;;;;;;;1.80;1.38;;;15.70;58.10;;;;;;4913531;29;20036;-48
2022/07/02 04:01:22;;;;;;;2.03;1.67;;;15.70;58.20;;;;;;4912752;29;20044;-46
2022/07/02 04:03:51;;;;;;;3.35;1.45;;;15.70;58.30;;;;;;4912608;29;20048;-47
2022/07/02 04:06:18;;;;;;;1.35;1.30;;;15.80;58.50;;;;;;4915440;29;20036;-47
2022/07/02 04:08:45;;;;;;;2.08;1.67;;;15.80;58.60;;;;;;4909423;29;20100;-46
2022/07/02 04:11:12;;;;;;;1.95;1.50;;;15.80;58.70;;;;;;4915154;29;20048;-47
2022/07/02 04:13:47;;;;;;;3.20;1.70;;;15.80;58.70;;;;;;4916691;29;20040;-46
2022/07/02 04:16:15;;;;;;;1.92;1.60;;;15.80;59.20;;;;;;4914452;29;20047;-46
2022/07/02 04:18:41;;;;;;;2.60;1.70;;;15.80;58.90;;;;;;4907136;29;20063;-46
2022/07/02 04:21:10;;;;;;;2.33;1.33;;;15.80;58.90;;;;;;4913202;29;20555;-45
2022/07/02 04:23:37;;;;;;;1.55;1.45;;;15.80;59.00;;;;;;4916184;29;20040;-49
2022/07/02 04:26:05;;;;;;;2.80;2.13;;;15.90;59.10;;;;;;4915106;29;20066;-50
2022/07/02 04:28:32;;;;;;;1.98;1.80;;;15.90;59.20;;;;;;4911627;29;20032;-50
2022/07/02 04:30:59;;;;;;;1.42;1.38;;;15.90;59.40;;;;;;4914536;29;20044;-50
2022/07/02 04:33:27;;;;;;;3.95;1.88;;;15.90;59.50;;;;;;4915995;29;20056;-47
2022/07/02 04:35:53;;;;;;;1.80;1.65;;;15.90;59.60;;;;;;4912286;29;20056;-49
2022/07/02 04:38:20;;;;;;;1.80;1.70;;;16.00;59.80;;;;;;4910150;29;20048;-49
2022/07/02 04:40:47;;;;;;;3.17;1.50;;;16.00;59.90;;;;;;4914312;29;20060;-49
2022/07/02 04:43:14;;;;;;;2.33;1.55;;;16.00;60.00;;;;;;4914742;29;20047;-48
2022/07/02 04:45:42;;;;;;;1.48;1.38;;;16.10;60.30;;;;;;4911016;29;20032;-49
2022/07/02 04:48:13;;;;;;;2.78;1.55;;;16.10;60.40;;;;;;4914984;29;20076;-50
2022/07/02 04:50:42;;;;;;;5.00;1.83;;;16.10;60.50;;;;;;4915105;29;20063;-50
2022/07/02 04:53:17;;;;;;;1.60;1.23;;;16.20;60.70;;;;;;4909143;29;20078;-52
2022/07/02 04:55:47;;;;;;;1.38;1.25;;;16.20;60.80;;;;;;4912217;29;20059;-49
2022/07/02 04:58:18;;;;;;;2.60;1.48;;;16.30;60.80;;;;;;4911447;29;20042;-50
2022/07/02 05:00:52;;;;;;;3.58;1.38;;;16.30;60.80;;;;;;4914824;29;20083;-48
2022/07/02 05:03:19;;;;;;;1.88;1.38;;;16.40;60.90;;;;;;4911221;29;20052;-51
2022/07/02 05:05:46;;;;;;;2.08;1.38;;;16.40;61.00;;;;;;4913486;29;20056;-47
2022/07/02 05:08:18;;;;;;;1.52;1.17;;;16.40;61.20;;;;;;4910300;29;20084;-49
2022/07/02 05:10:55;;;;;;;2.13;1.20;;;16.50;61.40;;;;;;4902592;29;20503;-46
2022/07/02 05:13:22;;;;;;;2.38;1.45;;;16.50;61.40;;;;;;4898875;29;20044;-47
2022/07/02 05:15:50;;;;;;;2.33;1.52;;;16.60;61.70;;;;;;4908260;29;20071;-48
2022/07/02 05:18:17;;;;;;;5.35;1.80;;;16.60;61.90;;;;;;4902853;29;20036;-47
2022/07/02 05:20:43;;;;;;;2.38;1.80;;;16.70;62.00;;;;;;4925141;29;20094;-47
2022/07/02 05:23:10;;;;;;;4.03;1.90;;;16.70;62.20;;;;;;4914009;29;20100;-52
2022/07/02 05:25:37;;;;;;;2.55;1.60;;;16.80;62.30;;;;;;4913406;29;20040;-53
2022/07/02 05:28:04;;;;;;;3.50;1.30;;;16.80;62.30;;;;;;4913247;29;20052;-48
2022/07/02 05:30:31;;;;;;;2.08;1.83;;;16.90;62.40;;;;;;4923078;29;20415;-50
2022/07/02 05:32:58;;;;;;;2.00;1.20;;;17.00;62.60;;;;;;4928034;29;20055;-48
2022/07/02 05:35:25;;;;;;;2.33;1.45;;;17.00;62.70;;;;;;4910489;29;20044;-48
2022/07/02 05:37:51;;;;;;;1.58;1.48;;;17.10;62.80;;;;;;4913689;29;20509;-47
2022/07/02 05:40:18;;;;;;;1.27;1.17;;;17.10;62.90;;;;;;4909117;29;20133;-51
2022/07/02 05:42:45;;;;;;;2.47;1.60;;;17.20;63.00;;;;;;4889843;29;20042;-50
2022/07/02 05:45:12;;;;;;;3.72;1.63;;;17.30;63.20;;;;;;4924478;29;20099;-50
2022/07/02 05:47:39;;;;;;;1.35;1.25;;;17.30;63.20;;;;;;4928110;29;20535;-50
2022/07/02 05:50:06;;;;;;;3.28;1.65;;;17.40;63.40;;;;;;4893631;29;20533;-52
2022/07/02 05:52:33;;;;;;;1.83;1.40;;;17.40;63.40;;;;;;4913528;29;20080;-50
2022/07/02 05:55:00;;;;;;;2.38;1.30;;;17.50;63.60;;;;;;4911575;29;20393;-50
2022/07/02 05:57:27;;;;;;;2.35;1.17;;;17.50;63.50;;;;;;4908038;29;20052;-49
2022/07/02 05:59:53;;;;;;;1.33;1.23;;;17.60;63.50;;;;;;4910468;29;20056;-48
2022/07/02 06:02:20;;;;;;;1.23;1.10;;;17.60;63.30;;;;;;4919015;29;20111;-52
2022/07/02 06:04:47;;;;;;;1.27;1.17;;;17.70;63.50;;;;;;4912122;29;20052;-51
2022/07/02 06:09:59;;;;;;;2.17;0.80;;;17.80;63.70;;;;;;4908019;29;20048;-50
2022/07/02 06:12:26;;;;;;;2.97;0.70;;;17.90;63.60;;;;;;4909416;29;20048;-48
2022/07/02 06:14:53;;;;;;;2.30;0.85;;;18.00;63.20;;;;;;4907573;29;20045;-51
2022/07/02 06:17:20;;;;;;;2.53;0.82;;;18.00;63.00;;;;;;4932619;29;20511;-51
2022/07/02 06:19:48;;;;;;;1.80;0.68;;;18.10;63.20;;;;;;4914159;29;20044;-48
2022/07/02 06:22:15;;;;;;;1.65;0.65;;;18.20;62.70;;;;;;4911130;29;20041;-49
2022/07/02 06:24:41;;;;;;;2.58;0.80;;;18.20;62.20;;;;;;4929413;29;20047;-48
2022/07/02 06:27:09;;;;;;;1.17;0.70;;;18.30;61.40;;;;;;4915886;29;20064;-51
2022/07/02 06:29:37;;;;;;;2.45;0.57;;;18.40;61.00;;;;;;4912333;29;20048;-48
2022/07/02 06:32:04;;;;;;;3.90;0.57;;;18.40;60.70;;;;;;4916060;29;20134;-50
2022/07/02 06:34:33;;;;;;;0.73;0.70;;;18.50;61.00;;;;;;4917261;29;20047;-50
2022/07/02 06:37:00;;;;;;;1.70;0.50;;;18.60;60.90;;;;;;4917264;29;20048;-52
2022/07/02 06:39:27;;;;;;;2.35;0.65;;;18.60;60.60;;;;;;4915061;29;20077;-50
2022/07/02 06:44:41;;;;;;;1.73;0.70;;;18.80;59.30;;;;;;4913255;29;20047;-53
2022/07/02 06:47:08;;;;;;;3.38;0.73;;;18.90;59.60;;;;;;4918118;29;20131;-49
2022/07/02 06:49:35;;;;;;;1.10;0.52;;;18.90;59.40;;;;;;4909656;29;20048;-52
2022/07/02 06:52:02;;;;;;;2.65;0.75;;;19.00;59.00;;;;;;4913463;29;20048;-52
2022/07/02 06:54:29;;;;;;;0.70;0.68;;;19.10;59.00;;;;;;4915309;29;20041;-54
2022/07/02 06:56:56;;;;;;;0.82;0.30;;;19.10;58.50;;;;;;4926048;29;20052;-49
2022/07/02 06:59:22;;;;;;;1.77;0.70;;;19.20;57.90;;;;;;4906779;29;20092;-47
2022/07/02 07:01:49;;;;;;;1.15;0.30;;;19.20;57.10;;;;;;4914373;29;20111;-48
2022/07/02 07:04:37;;;;;;;3.17;1.20;;;19.30;57.30;;;;;;4911520;29;20067;-50
2022/07/02 07:07:08;;;;;;;1.10;0.40;;;19.40;57.00;;;;;;4907757;29;20059;-49
2022/07/02 07:09:35;;;;;;;2.05;0.68;;;19.50;56.70;;;;;;4913674;29;20598;-48
2022/07/02 07:12:04;;;;;;;0.60;0.57;;;19.60;56.50;;;;;;4913467;29;20433;-50
2022/07/02 07:14:33;;;;;;;1.70;0.50;;;19.60;56.40;;;;;;4908834;29;20053;-51
2022/07/02 07:17:00;;;;;;;0.63;0.47;;;19.70;56.40;;;;;;4909151;29;20044;-49
2022/07/02 07:19:27;;;;;;;0.80;0.35;;;19.80;56.20;;;;;;4915212;29;20036;-48
2022/07/02 07:21:54;;;;;;;2.25;0.85;;;19.90;55.60;;;;;;4910561;29;20103;-46
2022/07/02 07:24:21;;;;;;;1.60;0.40;;;19.90;55.90;;;;;;4905438;29;20040;-49
2022/07/02 07:26:48;;;;;;;0.57;0.43;;;20.00;55.70;;;;;;4909922;29;20063;-51
2022/07/02 07:29:16;;;;;;;0.88;0.40;;;20.00;55.10;;;;;;4911664;29;20488;-52
2022/07/02 07:31:43;;;;;;;1.30;0.52;;;20.10;54.90;;;;;;4911865;29;20044;-51
2022/07/02 07:34:10;;;;;;;1.63;0.50;;;20.20;53.90;;;;;;4907695;29;20058;-51
2022/07/02 07:36:36;;;;;;;0.70;0.32;;;20.30;53.70;;;;;;4915833;29;20040;-48
2022/07/02 07:39:04;;;;;;;1.60;0.50;;;20.30;53.40;;;;;;4911655;29;20103;-48
2022/07/02 07:41:31;;;;;;;2.28;0.50;;;20.40;53.60;;;;;;4906949;29;20055;-52
2022/07/02 07:43:57;;;;;;;2.15;0.63;;;20.50;53.60;;;;;;4909106;29;20044;-50
2022/07/02 07:46:26;;;;;;;0.50;0.50;;;20.50;54.00;;;;;;4911224;29;20087;-48
2022/07/02 07:48:53;;;;;;;2.25;0.57;;;20.60;53.30;;;;;;4911076;29;20047;-52
2022/07/02 07:51:20;;;;;;;3.70;1.67;;;20.60;53.20;;;;;;4916374;29;20563;-52
2022/07/02 07:53:49;;;;;;;1.77;0.60;;;20.70;53.00;;;;;;4913709;29;20115;-50
2022/07/02 07:56:17;;;;;;;0.50;0.40;;;20.80;51.90;;;;;;4915622;29;20059;-50
2022/07/02 07:58:45;;;;;;;0.70;0.38;;;20.90;51.90;;;;;;4944360;23;20055;-49
2022/07/02 08:01:11;;;;;;;0.57;0.30;;;21.00;52.10;;;;;;4925708;29;20059;-48
2022/07/02 08:03:38;;;;;;;1.15;0.45;;;21.00;52.30;;;;;;4945959;29;20054;-48
2022/07/02 08:06:05;;;;;;;2.70;0.50;;;21.00;52.30;;;;;;4934225;29;20071;-47
2022/07/02 08:08:32;;;;;;;1.58;0.30;;;21.10;51.80;;;;;;4941891;29;20039;-47
2022/07/02 08:10:59;;;;;;;0.88;0.38;;;21.20;52.00;;;;;;4926117;29;20047;-50
2022/07/02 08:13:25;;;;;;;0.85;0.60;;;21.30;51.00;;;;;;4949294;29;20122;-47
2022/07/02 08:15:52;;;;;;;3.63;1.17;;;21.30;50.60;;;;;;4929597;29;20106;-49
2022/07/02 08:18:19;;;;;;;0.55;0.40;;;21.40;50.70;;;;;;4940286;29;20043;-50
2022/07/02 08:20:46;;;;;;;1.85;0.47;;;21.50;50.90;;;;;;4933670;29;20047;-50
2022/07/02 08:23:14;;;;;;;1.77;0.40;;;21.50;50.10;;;;;;4935879;29;20054;-50
2022/07/02 08:25:41;;;;;;;0.90;0.40;;;21.60;50.10;;;;;;4937843;29;20524;-50
2022/07/02 08:28:09;;;;;;;0.73;0.30;;;21.70;50.20;;;;;;4931653;29;20043;-52
2022/07/02 08:30:35;;;;;;;2.55;0.40;;;21.70;49.20;;;;;;4938008;29;20048;-52
2022/07/02 08:33:03;;;;;;;0.65;0.22;;;21.80;49.10;;;;;;4931225;29;20047;-50
2022/07/02 08:35:30;;;;;;;1.88;0.60;;;21.90;49.00;;;;;;4949319;29;20074;-48
2022/07/02 08:37:57;;;;;;;0.40;0.30;;;21.90;48.90;;;;;;4951373;29;20043;-50
2022/07/02 08:40:25;;;;;;;0.60;0.25;;;22.00;48.80;;;;;;4941055;29;20094;-48
2022/07/02 08:42:53;;;;;;;0.43;0.43;;;22.10;48.70;;;;;;4934325;29;20051;-48
2022/07/02 08:45:23;;;;;;;1.30;0.40;;;22.10;47.90;;;;;;4937972;29;20039;-48
2022/07/02 08:47:52;;;;;;;0.40;0.40;;;22.10;47.70;;;;;;4934711;29;20555;-47
2022/07/02 08:50:21;;;;;;;1.58;0.30;;;22.20;48.20;;;;;;4927624;29;20047;-50
2022/07/02 08:52:50;;;;;;;0.90;0.30;;;22.30;47.80;;;;;;4942140;29;20720;-52
2022/07/02 08:55:18;;;;;;;0.55;0.40;;;22.30;47.70;;;;;;4933184;29;20066;-52
2022/07/02 08:57:47;;;;;;;2.90;0.40;;;22.40;47.50;;;;;;4932256;29;20043;-47
2022/07/02 09:00:16;;;;;;;1.55;0.47;;;22.40;47.70;;;;;;4929162;29;20074;-52
2022/07/02 09:02:43;;;;;;;0.45;0.30;;;22.50;47.80;;;;;;4938432;29;20443;-47
2022/07/02 09:05:12;;;;;;;1.55;0.60;;;22.60;47.00;;;;;;4932101;29;20054;-53
2022/07/02 09:07:40;;;;;;;0.50;0.28;;;22.60;47.50;;;;;;4931093;29;20423;-48
2022/07/02 09:10:09;;;;;;;0.52;0.30;;;22.70;47.30;;;;;;4934843;29;20054;-52
2022/07/02 09:12:36;;;;;;;0.85;0.30;;;22.90;46.80;;;;;;4938942;29;20102;-48
2022/07/02 09:15:06;;;;;;;1.63;0.30;;;22.90;46.30;;;;;;4931966;29;20039;-51
2022/07/02 09:17:33;;;;;;;0.70;0.40;;;23.00;46.60;;;;;;4929047;29;20052;-47
2022/07/02 09:20:02;;;;;;;0.55;0.30;;;23.10;46.00;;;;;;4927714;29;20577;-48
2022/07/02 09:22:34;;;;;;;2.70;0.45;;;23.10;46.00;;;;;;4933513;29;20042;-48
2022/07/02 09:25:13;;;;;;;1.60;0.50;;;23.20;45.50;;;;;;4932706;29;20099;-47
2022/07/02 09:27:40;;;;;;;2.20;0.40;;;23.40;45.80;;;;;;4931398;29;20115;-48
2022/07/02 09:30:09;;;;;;;0.68;0.50;;;23.40;46.00;;;;;;4928247;29;20043;-47
2022/07/02 09:32:39;;;;;;;0.55;0.45;;;23.40;45.90;;;;;;4933709;29;20039;-49
2022/07/02 09:35:06;;;;;;;1.50;0.63;;;23.50;45.00;;;;;;4933816;29;20044;-47
2022/07/02 09:37:33;;;;;;;0.90;0.30;;;23.60;46.30;;;;;;4925704;29;20035;-50
2022/07/02 09:40:03;;;;;;;0.80;0.40;;;23.70;45.50;;;;;;4931413;29;20050;-52
2022/07/02 09:42:32;;;;;;;0.88;0.30;;;23.80;45.40;;;;;;4933329;29;20570;-48
2022/07/02 09:45:02;;;;;;;1.05;0.35;;;24.00;45.30;;;;;;4930640;29;20451;-50
2022/07/02 09:47:39;;;;;;;4.63;0.63;;;24.10;45.20;;;;;;4930352;29;20035;-47
2022/07/02 09:50:10;;;;;;;2.42;0.47;;;24.20;43.00;;;;;;4928586;29;20050;-51
2022/07/02 09:52:48;;;;;;;1.13;0.60;;;24.30;43.20;;;;;;4934945;29;20075;-48
2022/07/02 09:55:31;;;;;;;1.33;0.40;;;24.40;42.10;;;;;;4930359;29;20050;-48
2022/07/02 09:58:00;;;;;;;0.35;0.28;;;24.40;42.60;;;;;;4929260;29;20055;-48
2022/07/02 10:00:30;;;;;;;0.75;0.20;;;24.40;42.30;;;;;;4928542;29;20571;-51
2022/07/02 10:02:59;;;;;;;2.00;0.52;;;24.40;42.10;;;;;;4949193;29;20630;-49
2022/07/02 10:05:33;;;;;;;1.20;0.40;;;24.50;42.30;;;;;;4925744;29;20036;-50
2022/07/02 10:08:04;;;;;;;0.90;0.20;;;24.50;42.20;;;;;;4931391;29;20502;-48
2022/07/02 10:10:36;;;;;;;0.55;0.25;;;24.50;41.60;;;;;;4922268;29;20075;-49
2022/07/02 10:13:03;;;;;;;0.80;0.20;;;24.60;41.10;;;;;;4930610;29;20043;-49
2022/07/02 10:15:33;;;;;;;1.80;0.35;;;24.70;41.70;;;;;;4901957;29;20090;-52
2022/07/02 10:18:00;;;;;;;0.30;0.30;;;24.70;40.70;;;;;;4937143;29;20429;-49
2022/07/02 10:20:28;;;;;;;1.30;0.40;;;24.70;40.20;;;;;;4929876;29;20051;-48
2022/07/02 10:23:02;;;;;;;3.40;0.60;;;24.80;39.80;;;;;;4928545;29;20047;-47
2022/07/02 10:25:30;;;;;;;0.25;0.10;;;24.90;39.10;;;;;;4929009;29;20067;-48
2022/07/02 10:27:57;;;;;;;1.05;0.30;;;25.00;39.60;;;;;;4928033;29;20555;-49
2022/07/02 10:30:30;;;;;;;2.42;0.32;;;25.10;40.20;;;;;;4939408;29;20156;-47
2022/07/02 10:33:01;;;;;;;0.47;0.30;;;25.10;38.80;;;;;;4933909;29;20122;-48
2022/07/02 10:35:28;;;;;;;0.80;0.40;;;25.20;38.80;;;;;;4929224;29;20059;-47
2022/07/02 10:38:00;;;;;;;1.17;0.20;;;25.20;38.80;;;;;;4931931;29;20067;-47
2022/07/02 10:40:28;;;;;;;0.20;0.20;;;25.30;39.40;;;;;;4942461;29;20039;-49
2022/07/02 10:42:59;;;;;;;0.60;0.30;;;25.20;38.40;;;;;;4939571;29;20073;-48
2022/07/02 10:45:26;;;;;;;1.17;0.30;;;25.30;38.70;;;;;;4926698;29;20472;-49
2022/07/02 10:48:04;;;;;;;1.38;0.20;;;25.20;38.30;;;;;;4908463;29;20104;-48
2022/07/02 10:50:39;;;;;;;1.70;0.40;;;25.20;38.30;;;;;;4927303;29;20067;-49
2022/07/02 10:53:10;;;;;;;3.47;0.52;;;25.20;39.60;;;;;;4935508;29;20118;-48
2022/07/02 10:55:38;;;;;;;1.35;0.30;;;25.20;38.70;;;;;;4933660;29;20039;-48
2022/07/02 10:58:07;;;;;;;2.03;0.68;;;25.30;40.30;;;;;;4935366;29;20586;-50
2022/07/02 11:00:38;;;;;;;2.30;1.10;;;25.30;39.70;;;;;;4939577;29;20035;-48
2022/07/02 11:03:18;;;;;;;2.20;0.43;;;25.40;40.00;;;;;;4928884;29;20099;-51
2022/07/02 11:06:00;;;;;;;0.43;0.30;;;25.50;39.30;;;;;;4934739;29;20492;-47
2022/07/02 11:08:44;;;;;;;1.15;0.30;;;25.60;38.90;;;;;;4935423;29;20499;-49
2022/07/02 11:11:18;;;;;;;2.05;0.40;;;25.70;38.20;;;;;;4931255;29;20051;-49
2022/07/02 11:14:04;;;;;;;2.47;0.40;;;25.80;38.70;;;;;;4931404;29;20050;-52
2022/07/02 11:16:40;;;;;;;0.65;0.35;;;25.80;38.30;;;;;;4937537;29;20056;-49
2022/07/02 11:19:24;;;;;;;0.40;0.30;;;25.90;37.80;;;;;;4931451;29;20052;-52
2022/07/02 11:21:57;;;;;;;0.30;0.22;;;25.90;37.60;;;;;;4928251;29;20044;-48
2022/07/02 11:24:29;;;;;;;1.92;0.45;;;25.90;37.70;;;;;;4922440;29;20392;-48
2022/07/02 11:26:56;;;;;;;0.40;0.40;;;26.00;38.50;;;;;;4925147;29;20067;-49
2022/07/02 11:29:23;;;;;;;0.30;0.20;;;26.00;38.00;;;;;;4927241;29;20440;-52
2022/07/02 11:31:52;;;;;;;1.58;0.30;;;26.10;37.20;;;;;;4926530;29;20100;-52
2022/07/02 11:34:21;;;;;;;1.75;0.45;;;26.10;38.50;;;;;;4928968;29;20043;-52
2022/07/02 11:36:48;;;;;;;3.20;0.43;;;26.20;38.20;;;;;;4925700;29;20512;-49
2022/07/02 11:39:20;;;;;;;0.57;0.30;;;26.30;39.60;;;;;;4926300;29;20083;-49
2022/07/02 11:41:47;;;;;;;2.55;0.43;;;26.40;37.60;;;;;;4924782;29;20093;-50
2022/07/02 11:44:23;;;;;;;0.93;0.25;;;26.50;37.70;;;;;;4926393;29;20036;-51
2022/07/02 11:47:00;;;;;;;5.88;0.30;;;26.70;38.40;;;;;;4924619;29;20044;-51
2022/07/02 11:49:34;;;;;;;0.32;0.30;;;26.80;36.70;;;;;;4920880;29;20500;-48
2022/07/02 11:52:01;;;;;;;1.85;0.30;;;27.10;36.30;;;;;;4933141;29;20097;-51
2022/07/02 11:54:28;;;;;;;1.50;0.28;;;27.10;36.90;;;;;;4931989;29;20131;-50
2022/07/02 11:56:55;;;;;;;3.15;0.47;;;27.20;36.90;;;;;;4928199;29;20103;-50
2022/07/02 11:59:24;;;;;;;2.20;0.40;;;27.30;36.90;;;;;;4923306;29;20576;-49
2022/07/02 12:01:53;;;;;;;0.40;0.30;;;27.40;36.60;;;;;;4930254;29;20119;-52
2022/07/02 12:04:22;;;;;;;2.17;0.30;;;27.40;36.10;;;;;;4928706;29;20067;-48
2022/07/02 12:06:52;;;;;;;0.45;0.20;;;27.50;35.20;;;;;;4920778;29;20044;-51
2022/07/02 12:09:24;;;;;;;1.13;0.50;;;27.60;36.70;;;;;;4926294;29;20051;-48
2022/07/02 12:11:55;;;;;;;0.65;0.30;;;27.70;35.90;;;;;;4930014;29;20666;-51
2022/07/02 12:14:27;;;;;;;0.57;0.40;;;27.80;36.20;;;;;;4927381;29;20065;-52
2022/07/02 12:16:55;;;;;;;1.25;0.35;;;27.80;35.20;;;;;;4924147;29;20125;-51
2022/07/02 12:19:28;;;;;;;2.55;0.40;;;28.00;36.70;;;;;;4924871;29;20098;-48
2022/07/02 12:21:56;;;;;;;0.52;0.20;;;28.20;36.60;;;;;;4927340;29;20137;-50
2022/07/02 12:24:29;;;;;;;0.65;0.30;;;28.30;35.10;;;;;;4921669;29;20092;-51
2022/07/02 12:27:03;;;;;;;0.82;0.20;;;28.50;34.90;;;;;;4925307;29;20051;-48
2022/07/02 12:32:20;;;;;;;0.50;0.20;;;28.70;34.10;;;;;;4925260;29;20069;-49
2022/07/02 12:34:50;;;;;;;0.70;0.32;;;28.80;34.60;;;;;;4932595;29;20106;-48
2022/07/02 12:37:25;;;;;;;0.88;0.35;;;28.80;34.70;;;;;;4935008;29;20067;-52
2022/07/02 12:39:58;;;;;;;1.88;0.22;;;28.90;34.50;;;;;;4933158;29;20495;-51
2022/07/02 12:42:28;;;;;;;0.57;0.30;;;28.90;34.00;;;;;;4941215;29;20578;-50
2022/07/02 12:44:58;;;;;;;0.93;0.43;;;29.00;34.80;;;;;;4931996;29;20111;-50
2022/07/02 12:47:36;;;;;;;8.57;1.17;;;29.00;34.10;;;;;;4933820;29;20067;-48
2022/07/02 12:50:09;;;;;;;0.82;0.25;;;29.00;34.20;;;;;;4926860;29;20118;-49
2022/07/02 12:53:04;;;;;;;1.27;0.50;;;29.10;34.20;;;;;;4932478;29;20107;-50
2022/07/02 12:55:34;;;;;;;1.98;0.47;;;29.20;34.40;;;;;;4925260;29;20064;-50
2022/07/02 12:58:11;;;;;;;1.20;0.10;;;29.20;32.80;;;;;;4926824;29;20508;-50
2022/07/02 13:00:45;;;;;;;1.77;0.70;;;29.30;34.10;;;;;;4933550;29;20047;-51
2022/07/02 13:03:13;;;;;;;1.05;0.38;;;29.30;34.70;;;;;;4931189;29;20080;-50
2022/07/02 13:05:54;;;;;;;2.17;0.40;;;29.40;35.00;;;;;;4930016;29;20035;-50
2022/07/02 13:08:23;;;;;;;1.58;0.30;;;29.50;35.20;;;;;;4925582;29;20404;-49
2022/07/02 13:10:52;;;;;;;0.80;0.30;;;29.50;35.10;;;;;;4933018;29;20039;-51